KISP

Long Island Mac Arthur Airport

New York, New York, USA

KISP 110856Z AUTO 25008KT 10SM OVC075 02/M04 A2998 RMK AO2 SLP153 T00171044 55005 $

Observed Flight Rules
Dec-11 @ 08:56 UTC (26 minutes ago) Visual Flight Rules
Wind Visibility Clouds
250° at 8 knots 10 miles
  • Overcast at 7,500' AGL
Temperatures Readings
Current 2°C / 36°F
Dewpoint -4°C / 25°F
Humidity 65%
Altimeter 29.98" Hg
Pressure 1015.3 hPa
Elevation 43
Observed Flight Rules
Dec-11 @ 08:56 UTC
(26 minutes ago)
VFR
Wind Visibility
250° at 8 knots 10 miles
Clouds
  • Overcast at 7,500' AGL
Temperature Dewpoint
2°C / 36°F -4°C / 25°F
Humidity Altimeter Pressure
65% 29.98" Hg 1015.3 hPa